createdAt,value
2019-05-11T00:02:08.996Z,5.62
2019-05-11T00:04:39.487Z,7.85
2019-05-11T00:07:15.710Z,5.10
2019-05-11T00:09:57.603Z,4.97
2019-05-11T00:12:17.235Z,5.83
2019-05-11T00:14:46.931Z,5.67
2019-05-11T00:17:16.665Z,5.62
2019-05-11T00:19:46.760Z,6.47
2019-05-11T00:22:16.475Z,5.40
2019-05-11T00:24:46.469Z,6.40
2019-05-11T00:27:16.196Z,5.67
2019-05-11T00:29:46.188Z,9.18
2019-05-11T00:32:15.968Z,6.60
2019-05-11T00:34:45.859Z,6.40
2019-05-11T00:37:15.809Z,8.88
2019-05-11T00:39:45.644Z,6.22
2019-05-11T00:42:15.351Z,9.47
2019-05-11T00:44:47.248Z,7.37
2019-05-11T00:47:16.771Z,7.30
2019-05-11T00:49:46.751Z,8.05
2019-05-11T00:52:18.096Z,9.63
2019-05-11T00:54:48.005Z,9.18
2019-05-11T00:57:17.984Z,5.67
2019-05-11T00:59:47.881Z,9.73
2019-05-11T01:02:17.870Z,9.90
2019-05-11T01:04:47.568Z,8.15
2019-05-11T01:07:17.923Z,8.98
2019-05-11T01:09:47.954Z,6.67
2019-05-11T01:12:18.567Z,6.77
2019-05-11T01:14:48.553Z,9.70
2019-05-11T01:17:18.894Z,11.33
2019-05-11T01:19:49.346Z,6.33
2019-05-11T01:22:19.746Z,9.70
2019-05-11T01:24:49.967Z,7.17
2019-05-11T01:27:20.099Z,7.08
2019-05-11T01:29:50.483Z,8.45
2019-05-11T01:32:20.536Z,7.10
2019-05-11T01:34:50.508Z,7.17
2019-05-11T01:37:20.569Z,6.85
2019-05-11T01:39:50.443Z,9.93
2019-05-11T01:42:20.148Z,7.30
2019-05-11T01:44:49.957Z,7.63
2019-05-11T01:47:19.668Z,7.33
2019-05-11T01:49:49.691Z,10.50
2019-05-11T01:52:19.811Z,7.03
2019-05-11T01:54:49.930Z,8.98
2019-05-11T01:57:19.842Z,8.40
2019-05-11T01:59:49.851Z,6.65
2019-05-11T02:02:20.019Z,10.55
2019-05-11T02:04:52.708Z,6.42
2019-05-11T02:07:23.043Z,8.98
2019-05-11T02:09:52.966Z,10.97
2019-05-11T02:12:22.773Z,9.28
2019-05-11T02:14:52.595Z,9.10
2019-05-11T02:17:22.692Z,6.72
2019-05-11T02:19:52.387Z,8.15
2019-05-11T02:22:22.719Z,8.40
2019-05-11T02:24:52.740Z,6.60
2019-05-11T02:27:22.775Z,6.55
2019-05-11T02:29:52.612Z,7.33
2019-05-11T02:32:22.572Z,7.12
2019-05-11T02:34:52.529Z,6.87
2019-05-11T02:37:22.402Z,7.28
2019-05-11T02:39:52.270Z,9.75
2019-05-11T02:42:22.541Z,7.13
2019-05-11T02:44:52.681Z,5.90
2019-05-11T02:47:22.477Z,6.85
2019-05-11T02:49:53.029Z,6.60
2019-05-11T02:52:24.217Z,6.85
2019-05-11T02:54:56.125Z,6.40
2019-05-11T02:57:25.769Z,6.27
2019-05-11T02:59:55.854Z,7.58
2019-05-11T03:02:25.677Z,7.03
2019-05-11T03:04:55.722Z,7.17
2019-05-11T03:07:25.357Z,7.67
2019-05-11T03:09:55.333Z,7.00
2019-05-11T03:12:25.302Z,7.58
2019-05-11T03:14:55.348Z,7.55
2019-05-11T03:17:29.913Z,7.00
2019-05-11T03:20:00.101Z,7.87
2019-05-11T03:22:29.989Z,6.63
2019-05-11T03:25:00.049Z,6.97
2019-05-11T03:27:29.930Z,6.03
2019-05-11T03:30:01.419Z,7.10
2019-05-11T03:32:31.804Z,7.00
2019-05-11T03:35:01.663Z,6.40
2019-05-11T03:37:32.045Z,7.40
2019-05-11T03:40:02.339Z,7.97
2019-05-11T03:42:32.376Z,6.78
2019-05-11T03:45:02.437Z,6.60
2019-05-11T03:47:34.645Z,7.87
2019-05-11T03:50:04.505Z,8.10
2019-05-11T03:52:34.371Z,8.55
2019-05-11T03:55:04.485Z,6.85
2019-05-11T03:57:34.322Z,8.53
2019-05-11T04:00:04.733Z,5.87
2019-05-11T04:02:35.283Z,7.05
2019-05-11T04:05:05.437Z,7.58
2019-05-11T04:07:35.429Z,8.33
2019-05-11T04:10:05.548Z,8.57
2019-05-11T04:12:35.819Z,8.68
2019-05-11T04:15:06.132Z,12.77
2019-05-11T04:17:36.077Z,8.53
2019-05-11T04:20:06.561Z,10.98
2019-05-11T04:22:36.309Z,10.23
2019-05-11T04:25:07.888Z,8.80
2019-05-11T04:27:37.790Z,12.10
2019-05-11T04:30:08.143Z,12.63
2019-05-11T04:32:38.524Z,9.58
2019-05-11T04:35:08.533Z,11.88
2019-05-11T04:37:38.575Z,11.50
2019-05-11T04:40:09.293Z,11.30
2019-05-11T04:42:54.310Z,13.18
2019-05-11T04:45:11.722Z,11.33
2019-05-11T04:47:42.131Z,11.08
2019-05-11T04:50:12.902Z,8.08
2019-05-11T04:52:43.915Z,9.30
2019-05-11T04:55:14.221Z,7.60
2019-05-11T04:57:44.022Z,9.75
2019-05-11T05:01:47.185Z,7.00
2019-05-11T05:04:17.182Z,7.75
2019-05-11T05:06:58.968Z,9.70
2019-05-11T05:09:18.484Z,9.60
2019-05-11T05:11:48.421Z,6.65
2019-05-11T05:14:18.269Z,8.20
2019-05-11T05:16:48.041Z,8.10
2019-05-11T05:19:18.001Z,7.53
2019-05-11T05:21:47.975Z,9.48
2019-05-11T05:24:17.673Z,9.18
2019-05-11T05:26:47.700Z,11.88
2019-05-11T05:29:17.385Z,7.62
2019-05-11T05:31:47.423Z,11.50
2019-05-11T05:34:17.087Z,10.30
2019-05-11T05:36:48.687Z,9.10
2019-05-11T05:39:18.605Z,15.72
2019-05-11T05:41:56.591Z,11.83
2019-05-11T05:44:21.312Z,14.77
2019-05-11T05:46:53.087Z,13.80
2019-05-11T05:49:24.775Z,17.73
2019-05-11T05:51:58.192Z,20.97
2019-05-11T05:54:26.439Z,20.30
2019-05-11T05:56:58.076Z,19.73
2019-05-11T05:59:28.076Z,18.27
2019-05-11T06:01:57.740Z,16.50
2019-05-11T06:04:27.976Z,19.00
2019-05-11T06:06:58.036Z,17.80
2019-05-11T06:09:28.215Z,20.00
2019-05-11T06:11:57.932Z,22.15
2019-05-11T06:14:28.136Z,15.55
2019-05-11T06:16:58.099Z,16.97
2019-05-11T06:19:28.315Z,17.10
2019-05-11T06:21:58.242Z,21.02
2019-05-11T06:24:28.203Z,21.37
2019-05-11T06:26:58.164Z,20.85
2019-05-11T06:29:29.816Z,24.25
2019-05-11T06:32:00.049Z,22.17
2019-05-11T06:34:30.027Z,23.90
2019-05-11T06:37:00.943Z,27.02
2019-05-11T06:39:30.604Z,22.10
2019-05-11T06:42:00.440Z,21.77
2019-05-11T06:44:30.245Z,22.17
2019-05-11T06:47:00.343Z,18.82
2019-05-11T06:49:30.388Z,29.32
2019-05-11T06:52:00.415Z,18.97
2019-05-11T06:54:31.632Z,24.30
2019-05-11T06:57:01.856Z,19.57
2019-05-11T06:59:31.624Z,24.37
2019-05-11T07:02:01.777Z,25.40
2019-05-11T07:04:31.648Z,28.40
2019-05-11T07:07:01.709Z,23.30
2019-05-11T07:09:31.894Z,34.48
2019-05-11T07:12:01.990Z,32.33
2019-05-11T07:14:32.123Z,31.12
2019-05-11T07:17:03.204Z,23.85
2019-05-11T07:19:34.408Z,25.02
2019-05-11T07:22:04.112Z,28.00
2019-05-11T07:24:34.896Z,25.25
2019-05-11T07:27:04.581Z,26.10
2019-05-11T07:29:35.080Z,25.85
2019-05-11T07:32:15.319Z,29.37
2019-05-11T07:34:38.375Z,29.50
2019-05-11T07:37:09.544Z,21.77
2019-05-11T07:39:39.624Z,28.40
2019-05-11T07:42:09.934Z,28.62
2019-05-11T07:44:41.908Z,28.23
2019-05-11T07:47:11.908Z,28.67
2019-05-11T07:49:41.542Z,23.60
2019-05-11T07:52:11.431Z,29.85
2019-05-11T07:54:41.522Z,20.95
2019-05-11T07:57:11.576Z,24.60
2019-05-11T07:59:41.640Z,28.00
2019-05-11T08:02:12.731Z,21.33
2019-05-11T08:04:42.680Z,25.70
2019-05-11T08:07:12.377Z,25.23
2019-05-11T08:09:42.019Z,26.95
2019-05-11T08:12:11.712Z,28.32
2019-05-11T08:14:56.722Z,25.43
2019-05-11T08:17:14.782Z,21.45
2019-05-11T08:19:45.056Z,22.20
2019-05-11T08:22:14.827Z,23.10
2019-05-11T08:24:44.871Z,22.35
2019-05-11T08:27:14.824Z,20.25
2019-05-11T08:29:44.619Z,21.80
2019-05-11T08:32:14.369Z,18.23
2019-05-11T08:34:44.224Z,20.32
2019-05-11T08:37:13.903Z,18.15
2019-05-11T08:39:43.553Z,19.32
2019-05-11T08:42:13.427Z,19.50
2019-05-11T08:44:43.080Z,14.55
2019-05-11T08:47:12.759Z,16.23
2019-05-11T08:49:42.408Z,16.02
2019-05-11T08:52:12.123Z,17.25
2019-05-11T08:54:42.320Z,18.07
2019-05-11T08:57:12.008Z,12.03
2019-05-11T08:59:41.660Z,16.82
2019-05-11T09:02:11.384Z,16.23
2019-05-11T09:04:42.116Z,17.23
2019-05-11T09:07:11.848Z,17.27
2019-05-11T09:09:41.530Z,17.45
2019-05-11T09:12:11.266Z,14.93
2019-05-11T09:14:40.932Z,17.40
2019-05-11T09:17:10.623Z,15.58
2019-05-11T09:19:40.973Z,14.75
2019-05-11T09:22:10.650Z,14.80
2019-05-11T09:24:40.311Z,14.77
2019-05-11T09:27:10.008Z,12.30
2019-05-11T09:29:39.802Z,12.67
2019-05-11T09:32:09.503Z,13.37
2019-05-11T09:34:38.587Z,12.67
2019-05-11T09:37:08.640Z,13.85
2019-05-11T09:39:38.688Z,13.85
2019-05-11T09:42:08.507Z,13.23
2019-05-11T09:44:38.194Z,13.30
2019-05-11T09:47:08.517Z,12.77
2019-05-11T09:49:47.163Z,14.53
2019-05-11T09:52:09.535Z,11.78
2019-05-11T09:54:40.746Z,13.13
2019-05-11T09:57:11.052Z,11.88
2019-05-11T09:59:40.888Z,13.68
2019-05-11T10:02:10.573Z,12.35
2019-05-11T10:04:40.247Z,10.68
2019-05-11T10:07:10.041Z,12.82
2019-05-11T10:09:39.859Z,13.72
2019-05-11T10:12:09.545Z,15.43
2019-05-11T10:14:39.192Z,11.40
2019-05-11T10:17:09.376Z,12.60
2019-05-11T10:19:39.646Z,12.20
2019-05-11T10:22:10.291Z,12.03
2019-05-11T10:24:40.617Z,12.37
2019-05-11T10:27:10.843Z,12.37
2019-05-11T10:29:40.923Z,12.55
2019-05-11T10:32:11.459Z,12.58
2019-05-11T10:34:41.523Z,10.35
2019-05-11T10:37:11.853Z,12.05
2019-05-11T10:39:41.941Z,11.50
2019-05-11T10:42:12.078Z,10.63
2019-05-11T10:44:42.150Z,11.05
2019-05-11T10:47:12.401Z,12.60
2019-05-11T10:49:42.499Z,10.90
2019-05-11T10:52:12.647Z,11.08
2019-05-11T10:54:42.737Z,10.65
2019-05-11T10:57:13.346Z,11.23
2019-05-11T10:59:43.800Z,11.05
2019-05-11T11:02:14.293Z,11.35
2019-05-11T11:04:44.570Z,12.15
2019-05-11T11:07:17.209Z,11.33
2019-05-11T11:09:49.100Z,10.53
2019-05-11T11:12:18.982Z,11.00
2019-05-11T11:14:49.041Z,10.78
2019-05-11T11:17:19.291Z,9.40
2019-05-11T11:19:49.086Z,10.13
2019-05-11T11:22:35.804Z,9.55
2019-05-11T11:24:50.035Z,9.68
2019-05-11T11:27:19.848Z,9.30
2019-05-11T11:29:49.532Z,10.38
2019-05-11T11:32:19.275Z,9.88
2019-05-11T11:34:48.951Z,9.85
2019-05-11T11:37:18.592Z,8.60
2019-05-11T11:39:48.579Z,9.25
2019-05-11T11:42:19.004Z,8.83
2019-05-11T11:44:48.655Z,7.83
2019-05-11T11:47:21.406Z,7.60
2019-05-11T11:49:49.632Z,8.10
2019-05-11T11:52:19.317Z,7.55
2019-05-11T11:54:49.031Z,7.25
2019-05-11T11:57:18.692Z,7.42
2019-05-11T11:59:48.404Z,7.60
2019-05-11T12:02:19.158Z,8.55
2019-05-11T12:04:48.925Z,7.35
2019-05-11T12:07:18.719Z,6.83
2019-05-11T12:09:48.618Z,6.60
2019-05-11T12:12:18.750Z,7.60
2019-05-11T12:14:48.416Z,6.97
2019-05-11T12:17:18.298Z,8.43
2019-05-11T12:19:48.079Z,7.37
2019-05-11T12:22:18.860Z,7.80
2019-05-11T12:24:48.543Z,7.40
2019-05-11T12:27:18.381Z,8.20
2019-05-11T12:29:48.184Z,7.28
2019-05-11T12:32:27.660Z,7.10
2019-05-11T12:34:58.771Z,6.80
2019-05-11T12:37:28.512Z,6.12
2019-05-11T12:39:58.297Z,7.20
2019-05-11T12:42:28.380Z,7.45
2019-05-11T12:44:58.140Z,6.53
2019-05-11T12:47:28.326Z,7.08
2019-05-11T12:49:58.634Z,7.40
2019-05-11T12:52:28.621Z,6.85
2019-05-11T12:54:58.393Z,7.47
2019-05-11T12:57:28.294Z,7.37
2019-05-11T12:59:58.346Z,7.12
2019-05-11T13:02:28.433Z,6.30
2019-05-11T13:04:58.535Z,7.90
2019-05-11T13:07:28.574Z,6.83
2019-05-11T13:09:58.385Z,7.28
2019-05-11T13:12:28.338Z,7.00
2019-05-11T13:14:58.576Z,7.55
2019-05-11T13:17:37.050Z,7.10
2019-05-11T13:20:00.184Z,6.95
2019-05-11T13:22:29.957Z,7.40
2019-05-11T13:24:59.996Z,6.67
2019-05-11T13:27:29.762Z,6.75
2019-05-11T13:29:59.632Z,6.75
2019-05-11T13:32:29.802Z,6.95
2019-05-11T13:34:59.872Z,7.80
2019-05-11T13:37:29.532Z,6.58
2019-05-11T13:39:59.480Z,6.45
2019-05-11T13:42:29.580Z,6.28
2019-05-11T13:44:59.620Z,6.85
2019-05-11T13:47:29.511Z,6.22
2019-05-11T13:49:59.459Z,6.55
2019-05-11T13:52:29.540Z,6.12
2019-05-11T13:54:59.598Z,6.45
2019-05-11T13:57:29.588Z,6.33
2019-05-11T13:59:59.530Z,7.25
2019-05-11T14:02:29.671Z,6.83
2019-05-11T14:04:59.655Z,5.92
2019-05-11T14:07:29.652Z,6.37
2019-05-11T14:09:59.690Z,5.83
2019-05-11T14:12:29.477Z,6.65
2019-05-11T14:14:59.399Z,7.00
2019-05-11T14:17:31.777Z,6.33
2019-05-11T14:20:00.495Z,6.20
2019-05-11T14:22:30.563Z,6.40
2019-05-11T14:25:00.417Z,5.62
2019-05-11T14:27:30.389Z,6.80
2019-05-11T14:30:03.771Z,6.20
2019-05-11T14:32:31.853Z,6.58
2019-05-11T14:35:01.713Z,6.10
2019-05-11T14:37:31.976Z,5.92
2019-05-11T14:40:02.074Z,6.40
2019-05-11T14:42:32.343Z,6.33
2019-05-11T14:45:02.717Z,6.22
2019-05-11T14:47:32.579Z,7.05
2019-05-11T14:50:02.984Z,6.35
2019-05-11T14:52:33.311Z,6.90
2019-05-11T14:55:03.257Z,6.70
2019-05-11T14:57:33.255Z,7.25
2019-05-11T15:00:04.035Z,5.95
2019-05-11T15:02:48.650Z,6.58
2019-05-11T15:05:19.005Z,6.42
2019-05-11T15:07:52.374Z,6.63
2019-05-11T15:10:23.834Z,5.37
2019-05-11T15:12:53.516Z,5.92
2019-05-11T15:15:23.671Z,6.73
2019-05-11T15:17:53.870Z,5.47
2019-05-11T15:20:25.529Z,5.78
2019-05-11T15:22:55.523Z,6.05
2019-05-11T15:25:25.371Z,6.05
2019-05-11T15:27:55.141Z,5.92
2019-05-11T15:30:25.185Z,5.12
2019-05-11T15:32:55.279Z,5.50
2019-05-11T15:35:25.150Z,6.37
2019-05-11T15:37:54.911Z,4.95
2019-05-11T15:40:24.929Z,6.22
2019-05-11T15:42:54.613Z,5.47
2019-05-11T15:45:24.449Z,6.72
2019-05-11T15:47:54.247Z,5.45
2019-05-11T15:50:24.358Z,5.87
2019-05-11T15:52:54.505Z,5.85
2019-05-11T15:55:24.582Z,6.00
2019-05-11T15:57:54.844Z,5.28
2019-05-11T16:00:24.851Z,5.15
2019-05-11T16:02:55.029Z,5.03
2019-05-11T16:05:25.728Z,5.33
2019-05-11T16:08:01.369Z,6.30
2019-05-11T16:10:29.446Z,6.30
2019-05-11T16:12:59.475Z,5.30
2019-05-11T16:15:30.021Z,5.33
2019-05-11T16:18:00.038Z,5.60
2019-05-11T16:20:29.799Z,6.05
2019-05-11T16:22:59.648Z,4.95
2019-05-11T16:25:29.460Z,4.75
2019-05-11T16:27:59.281Z,5.67
2019-05-11T16:30:29.343Z,5.22
2019-05-11T16:32:59.265Z,5.13
2019-05-11T16:35:28.888Z,5.60
2019-05-11T16:37:59.361Z,5.20
2019-05-11T16:40:29.676Z,5.97
2019-05-11T16:42:59.704Z,5.33
2019-05-11T16:45:29.559Z,5.25
2019-05-11T16:47:59.930Z,5.20
2019-05-11T16:50:30.365Z,5.03
2019-05-11T16:53:00.323Z,5.00
2019-05-11T16:55:30.555Z,5.28
2019-05-11T16:58:00.536Z,4.37
2019-05-11T17:00:31.476Z,4.70
2019-05-11T17:03:01.203Z,5.00
2019-05-11T17:05:33.847Z,4.80
2019-05-11T17:08:02.947Z,4.55
2019-05-11T17:10:33.004Z,5.53
2019-05-11T17:13:02.680Z,5.35
2019-05-11T17:15:32.632Z,5.33
2019-05-11T17:18:02.488Z,4.87
2019-05-11T17:20:32.104Z,5.05
2019-05-11T17:23:02.709Z,4.83
2019-05-11T17:25:32.695Z,4.62
2019-05-11T17:28:02.828Z,5.50
2019-05-11T17:30:32.727Z,4.87
2019-05-11T17:33:02.538Z,4.73
2019-05-11T17:35:32.460Z,5.60
2019-05-11T17:38:02.276Z,4.50
2019-05-11T17:40:32.383Z,4.17
2019-05-11T17:43:02.189Z,5.45
2019-05-11T17:45:32.205Z,5.35
2019-05-11T17:48:02.368Z,5.28
2019-05-11T17:50:32.137Z,4.70
2019-05-11T17:53:02.605Z,5.30
2019-05-11T17:55:32.480Z,5.30
2019-05-11T17:58:02.531Z,4.58
2019-05-11T18:00:32.296Z,5.30
2019-05-11T18:03:02.348Z,5.17
2019-05-11T18:05:32.534Z,5.12
2019-05-11T18:08:02.702Z,5.33
2019-05-11T18:10:32.331Z,4.33
2019-05-11T18:13:04.261Z,4.75
2019-05-11T18:15:34.147Z,4.55
2019-05-11T18:18:04.008Z,5.27
2019-05-11T18:20:38.039Z,6.20
2019-05-11T18:23:08.604Z,5.10
2019-05-11T18:25:39.099Z,5.27
2019-05-11T18:28:09.403Z,4.72
2019-05-11T18:30:39.376Z,5.65
2019-05-11T18:33:09.451Z,5.50
2019-05-11T18:35:39.636Z,5.10
2019-05-11T18:38:09.276Z,4.90
2019-05-11T18:40:39.163Z,5.80
2019-05-11T18:43:08.814Z,5.50
2019-05-11T18:45:38.887Z,4.57
2019-05-11T18:48:08.910Z,5.17
2019-05-11T18:50:38.824Z,5.10
2019-05-11T18:53:09.136Z,5.72
2019-05-11T18:55:39.481Z,5.50
2019-05-11T18:58:09.135Z,4.87
2019-05-11T19:00:38.997Z,5.75
2019-05-11T19:03:09.192Z,4.87
2019-05-11T19:05:39.321Z,5.63
2019-05-11T19:08:09.363Z,4.55
2019-05-11T19:10:39.371Z,4.90
2019-05-11T19:13:09.357Z,4.78
2019-05-11T19:15:39.286Z,5.40
2019-05-11T19:18:09.496Z,4.22
2019-05-11T19:20:45.716Z,4.95
2019-05-11T19:23:13.507Z,4.93
2019-05-11T19:25:43.228Z,4.77
2019-05-11T19:28:13.131Z,7.73
2019-05-11T19:30:43.298Z,4.75
2019-05-11T19:33:13.542Z,5.30
2019-05-11T19:35:43.536Z,5.13
2019-05-11T19:38:13.820Z,5.15
2019-05-11T19:40:44.169Z,4.92
2019-05-11T19:43:14.056Z,5.25
2019-05-11T19:45:43.791Z,4.72
2019-05-11T19:48:13.849Z,4.72
2019-05-11T19:50:43.556Z,5.17
2019-05-11T19:53:13.472Z,4.90
2019-05-11T19:55:43.156Z,4.30
2019-05-11T19:58:12.802Z,4.62
2019-05-11T20:00:42.468Z,5.08
2019-05-11T20:03:12.146Z,5.10
2019-05-11T20:05:41.820Z,5.58
2019-05-11T20:08:11.552Z,4.95
2019-05-11T20:10:41.432Z,5.05
2019-05-11T20:13:11.099Z,4.78
2019-05-11T20:15:41.018Z,5.83
2019-05-11T20:18:10.817Z,5.70
2019-05-11T20:20:40.495Z,5.72
2019-05-11T20:23:10.121Z,6.40
2019-05-11T20:25:39.788Z,5.67
2019-05-11T20:28:09.420Z,4.58
2019-05-11T20:30:39.437Z,5.03
2019-05-11T20:33:09.132Z,5.50
2019-05-11T20:35:39.316Z,4.87
2019-05-11T20:38:08.957Z,6.20
2019-05-11T20:40:39.241Z,5.83
2019-05-11T20:43:08.896Z,5.37
2019-05-11T20:45:38.871Z,5.10
2019-05-11T20:48:08.500Z,5.15
2019-05-11T20:50:38.233Z,5.28
2019-05-11T20:53:08.611Z,5.17
2019-05-11T20:55:38.747Z,5.25
2019-05-11T20:58:08.764Z,5.50
2019-05-11T21:00:38.756Z,5.85
2019-05-11T21:03:08.393Z,5.17
2019-05-11T21:05:38.091Z,5.07
2019-05-11T21:08:08.547Z,5.30
2019-05-11T21:10:38.741Z,5.60
2019-05-11T21:13:08.703Z,4.30
2019-05-11T21:15:38.677Z,5.35
2019-05-11T21:18:08.392Z,5.28
2019-05-11T21:20:38.295Z,5.37
2019-05-11T21:23:08.352Z,5.53
2019-05-11T21:25:38.080Z,5.60
2019-05-11T21:28:08.649Z,4.50
2019-05-11T21:30:40.025Z,5.25
2019-05-11T21:33:09.937Z,6.53
2019-05-11T21:35:39.613Z,5.62
2019-05-11T21:38:09.888Z,5.17
2019-05-11T21:40:39.552Z,5.85
2019-05-11T21:43:09.304Z,4.85
2019-05-11T21:45:40.749Z,5.03
2019-05-11T21:48:10.264Z,5.55
2019-05-11T21:50:39.964Z,5.65
2019-05-11T21:53:10.566Z,5.92
2019-05-11T21:55:40.556Z,5.42
2019-05-11T21:58:10.184Z,6.08
2019-05-11T22:00:40.472Z,5.83
2019-05-11T22:03:10.484Z,6.05
2019-05-11T22:05:40.170Z,5.45
2019-05-11T22:08:09.844Z,6.08
2019-05-11T22:10:39.564Z,5.72
2019-05-11T22:13:09.312Z,6.03
2019-05-11T22:15:38.990Z,5.50
2019-05-11T22:18:08.927Z,5.92
2019-05-11T22:20:41.024Z,5.70
2019-05-11T22:23:10.994Z,6.00
2019-05-11T22:25:40.730Z,4.95
2019-05-11T22:28:12.197Z,5.87
2019-05-11T22:30:42.004Z,5.67
2019-05-11T22:33:11.889Z,5.80
2019-05-11T22:35:41.836Z,5.58
2019-05-11T22:38:11.859Z,5.62
2019-05-11T22:40:41.538Z,5.33
2019-05-11T22:43:12.123Z,5.85
2019-05-11T22:45:42.275Z,5.85
2019-05-11T22:48:12.347Z,5.20
2019-05-11T22:50:43.758Z,5.92
2019-05-11T22:53:15.477Z,5.92
2019-05-11T22:55:45.450Z,5.17
2019-05-11T22:58:17.765Z,6.08
2019-05-11T23:00:46.902Z,5.40
2019-05-11T23:03:18.861Z,5.12
2019-05-11T23:05:48.738Z,5.97
2019-05-11T23:08:18.440Z,5.62
2019-05-11T23:10:48.288Z,6.40
2019-05-11T23:13:18.727Z,6.25
2019-05-11T23:15:48.615Z,5.95
2019-05-11T23:18:18.477Z,5.67
2019-05-11T23:20:48.352Z,5.33
2019-05-11T23:23:18.264Z,5.62
2019-05-11T23:25:47.967Z,5.15
2019-05-11T23:28:18.436Z,6.25
2019-05-11T23:30:48.299Z,5.60
2019-05-11T23:33:18.485Z,6.37
2019-05-11T23:35:48.617Z,5.50
2019-05-11T23:38:18.408Z,6.33
2019-05-11T23:40:48.229Z,6.12
2019-05-11T23:43:19.146Z,5.37
2019-05-11T23:45:49.557Z,6.55
2019-05-11T23:48:19.504Z,6.50
2019-05-11T23:50:49.160Z,6.25
2019-05-11T23:53:19.212Z,5.20
2019-05-11T23:55:48.988Z,5.92
2019-05-11T23:58:19.501Z,6.53
